Terminal Aerodrome Forecast
Issued by NWS

Home | Current Version | Previous Version | Text Only | Print | Product List | Glossary On
Versions: 1 2 3 4 5 6 7 8 9 10 11 12 13 14 15 16 17 18 19
000
FTUS43 KFGF 271728
TAFDVL
TAF
KDVL 271728Z 2718/2818 26016G23KT P6SM VCSH SCT070
     FM272000 28016G24KT P6SM VCSH BKN070
     FM280100 30013KT P6SM BKN070
     FM280600 30008KT P6SM SCT110
     FM281500 31016G25KT P6SM SCT090=

USA.gov is the U.S. government's official web portal to all federal, state and local government web resources and services.